createdAt,value
2016-01-21T00:00:47.240Z,8.33
2016-01-21T00:02:18.153Z,8.23
2016-01-21T00:02:46.856Z,8.23
2016-01-21T00:03:46.952Z,8.09
2016-01-21T00:04:46.892Z,8.1
2016-01-21T00:05:46.833Z,8.06
2016-01-21T00:06:46.710Z,7.94
2016-01-21T00:07:46.681Z,7.9
2016-01-21T00:08:46.653Z,7.9
2016-01-21T00:09:46.609Z,7.87
2016-01-21T00:10:46.689Z,7.76
2016-01-21T00:11:46.566Z,7.63
2016-01-21T00:12:46.554Z,7.75
2016-01-21T00:13:46.557Z,7.67
2016-01-21T00:14:46.482Z,7.63
2016-01-21T00:15:46.500Z,7.66
2016-01-21T00:16:46.408Z,7.6
2016-01-21T00:17:46.348Z,7.56
2016-01-21T00:18:46.382Z,7.4
2016-01-21T00:19:46.291Z,7.51
2016-01-21T00:20:46.263Z,7.42
2016-01-21T00:21:46.251Z,7.32
2016-01-21T00:22:46.221Z,7.32
2016-01-21T00:23:46.099Z,7.28
2016-01-21T00:24:46.148Z,7.23
2016-01-21T00:25:46.042Z,7.18
2016-01-21T00:26:46.069Z,7.13
2016-01-21T00:27:46.170Z,7.1
2016-01-21T00:28:45.958Z,7.05
2016-01-21T00:29:46.029Z,7.1
2016-01-21T00:30:45.896Z,6.99
2016-01-21T00:31:45.861Z,6.97
2016-01-21T00:32:45.766Z,6.96
2016-01-21T00:33:45.890Z,6.93
2016-01-21T00:34:45.780Z,6.82
2016-01-21T00:35:45.685Z,6.81
2016-01-21T00:36:45.639Z,6.79
2016-01-21T00:37:45.640Z,6.82
2016-01-21T00:38:45.579Z,6.84
2016-01-21T00:39:45.565Z,6.67
2016-01-21T00:40:45.535Z,6.75
2016-01-21T00:41:45.615Z,6.7
2016-01-21T00:42:45.445Z,6.64
2016-01-21T00:43:45.463Z,6.64
2016-01-21T00:44:45.418Z,6.57
2016-01-21T00:45:45.497Z,6.6
2016-01-21T00:46:45.344Z,6.6
2016-01-21T00:47:45.269Z,6.62
2016-01-21T00:48:45.319Z,6.52
2016-01-21T00:49:45.321Z,6.64
2016-01-21T00:50:45.308Z,6.59
2016-01-21T00:51:45.170Z,6.51
2016-01-21T00:52:45.235Z,6.42
2016-01-21T00:53:45.191Z,6.42
2016-01-21T00:54:45.538Z,6.46
2016-01-21T00:55:45.071Z,6.41
2016-01-21T00:56:45.105Z,6.38
2016-01-21T00:57:45.061Z,6.36
2016-01-21T00:58:44.924Z,6.41
2016-01-21T00:59:44.926Z,6.33
2016-01-21T01:00:44.851Z,6.27
2016-01-21T01:01:44.853Z,6.33
2016-01-21T01:02:44.934Z,6.35
2016-01-21T01:03:44.796Z,6.35
2016-01-21T01:04:44.752Z,6.35
2016-01-21T01:05:44.724Z,6.36
2016-01-21T01:06:44.789Z,6.3
2016-01-21T01:07:44.760Z,6.27
2016-01-21T01:08:44.684Z,6.33
2016-01-21T01:09:44.562Z,6.27
2016-01-21T01:10:44.596Z,6.27
2016-01-21T01:11:44.584Z,6.22
2016-01-21T01:12:44.523Z,6.19
2016-01-21T01:13:44.526Z,6.17
2016-01-21T01:14:44.436Z,6.17
2016-01-21T01:15:44.484Z,6.17
2016-01-21T01:16:44.330Z,6.16
2016-01-21T01:17:44.333Z,6.19
2016-01-21T01:18:44.258Z,6.12
2016-01-21T01:19:44.292Z,6.17
2016-01-21T01:20:44.295Z,6.09
2016-01-21T01:21:44.439Z,6.12
2016-01-21T01:22:44.191Z,6.12
2016-01-21T01:23:44.147Z,6.09
2016-01-21T01:24:44.180Z,6.08
2016-01-21T01:25:44.152Z,6.09
2016-01-21T01:26:44.014Z,6.08
2016-01-21T01:27:44.205Z,6.08
2016-01-21T01:28:43.880Z,6.01
2016-01-21T01:29:43.851Z,6.02
2016-01-21T01:30:43.868Z,5.98
2016-01-21T01:31:43.809Z,5.98
2016-01-21T01:32:43.890Z,5.94
2016-01-21T01:33:43.908Z,5.94
2016-01-21T01:34:43.818Z,6.04
2016-01-21T01:35:43.820Z,6.01
2016-01-21T01:36:43.744Z,6.01
2016-01-21T01:37:43.590Z,6.02
2016-01-21T01:38:43.609Z,5.97
2016-01-21T01:39:43.596Z,5.93
2016-01-21T01:40:43.567Z,5.87
2016-01-21T01:41:43.711Z,5.91
2016-01-21T01:42:43.448Z,5.87
2016-01-21T01:43:43.466Z,5.97
2016-01-21T01:44:43.422Z,5.89
2016-01-21T01:45:43.425Z,5.89
2016-01-21T01:46:43.397Z,5.89
2016-01-21T01:47:43.242Z,5.84
2016-01-21T01:48:43.323Z,5.86
2016-01-21T01:49:43.342Z,5.89
2016-01-21T01:50:43.236Z,5.86
2016-01-21T01:51:43.253Z,5.84
2016-01-21T01:52:43.163Z,5.87
2016-01-21T01:53:43.086Z,5.82
2016-01-21T01:54:43.136Z,5.84
2016-01-21T01:55:43.077Z,5.87
2016-01-21T01:56:43.095Z,5.86
2016-01-21T01:57:43.082Z,5.9
2016-01-21T01:58:43.006Z,5.86
2016-01-21T01:59:42.962Z,5.79
2016-01-21T02:00:42.902Z,5.87
2016-01-21T02:01:42.827Z,5.82
2016-01-21T02:02:42.830Z,5.79
2016-01-21T02:03:42.818Z,5.72
2016-01-21T02:04:42.757Z,5.79
2016-01-21T02:05:42.743Z,5.69
2016-01-21T02:06:42.746Z,5.69
2016-01-21T02:07:42.703Z,5.73
2016-01-21T02:08:42.643Z,5.75
2016-01-21T02:09:42.599Z,5.73
2016-01-21T02:10:42.649Z,5.73
2016-01-21T02:11:42.557Z,5.75
2016-01-21T02:12:42.544Z,5.71
2016-01-21T02:13:42.484Z,5.69
2016-01-21T02:14:42.722Z,5.64
2016-01-21T02:15:42.350Z,5.68
2016-01-21T02:16:42.492Z,5.72
2016-01-21T02:17:42.480Z,5.68
2016-01-21T02:18:42.295Z,5.65
2016-01-21T02:19:42.235Z,5.71
2016-01-21T02:20:42.253Z,5.62
2016-01-21T02:21:42.302Z,5.65
2016-01-21T02:22:42.164Z,5.66
2016-01-21T02:23:42.121Z,5.62
2016-01-21T02:24:42.124Z,5.62
2016-01-21T02:25:42.158Z,5.64
2016-01-21T02:26:42.019Z,5.68
2016-01-21T02:27:42.038Z,5.66
2016-01-21T02:28:41.791Z,5.59
2016-01-21T02:29:41.996Z,5.68
2016-01-21T02:30:41.811Z,5.64
2016-01-21T02:31:41.924Z,5.68
2016-01-21T02:32:41.880Z,5.64
2016-01-21T02:33:41.851Z,5.64
2016-01-21T02:34:41.776Z,5.68
2016-01-21T02:35:41.715Z,5.66
2016-01-21T02:36:41.749Z,5.57
2016-01-21T02:37:41.674Z,5.62
2016-01-21T02:38:41.771Z,5.64
2016-01-21T02:39:41.665Z,5.64
2016-01-21T02:40:41.681Z,5.65
2016-01-21T02:41:41.559Z,5.53
2016-01-21T02:42:41.562Z,5.57
2016-01-21T02:43:41.675Z,5.61
2016-01-21T02:44:41.443Z,5.59
2016-01-21T02:45:41.492Z,5.61
2016-01-21T02:46:41.323Z,5.56
2016-01-21T02:47:41.372Z,5.57
2016-01-21T02:48:41.297Z,5.51
2016-01-21T02:49:41.284Z,5.56
2016-01-21T02:50:41.287Z,5.51
2016-01-21T02:51:41.212Z,5.56
2016-01-21T02:52:40.995Z,5.54
2016-01-21T02:53:41.139Z,5.54
2016-01-21T02:54:41.094Z,5.56
2016-01-21T02:55:41.082Z,5.54
2016-01-21T02:56:41.163Z,5.59
2016-01-21T02:57:41.088Z,5.56
2016-01-21T02:58:40.980Z,5.54
2016-01-21T02:59:40.968Z,5.51
2016-01-21T03:00:40.924Z,5.57
2016-01-21T03:01:40.894Z,5.56
2016-01-21T03:02:40.882Z,5.56
2016-01-21T03:03:40.946Z,5.54
2016-01-21T03:04:40.856Z,5.59
2016-01-21T03:05:40.765Z,5.57
2016-01-21T03:06:40.674Z,5.54
2016-01-21T03:07:40.646Z,5.53
2016-01-21T03:08:40.710Z,5.61
2016-01-21T03:09:40.620Z,5.57
2016-01-21T03:10:40.622Z,5.56
2016-01-21T03:11:40.562Z,5.53
2016-01-21T03:12:40.612Z,5.56
2016-01-21T03:13:40.552Z,5.53
2016-01-21T03:14:40.383Z,5.48
2016-01-21T03:15:40.401Z,5.51
2016-01-21T03:16:40.342Z,5.51
2016-01-21T03:17:40.375Z,5.48
2016-01-21T03:18:40.425Z,5.51
2016-01-21T03:19:40.350Z,5.48
2016-01-21T03:20:40.305Z,5.51
2016-01-21T03:21:40.261Z,5.43
2016-01-21T03:22:40.280Z,5.5
2016-01-21T03:23:40.189Z,5.51
2016-01-21T03:24:40.206Z,5.48
2016-01-21T03:25:40.209Z,5.43
2016-01-21T03:26:40.086Z,5.51
2016-01-21T03:27:40.027Z,5.47
2016-01-21T03:28:40.092Z,5.48
2016-01-21T03:29:39.970Z,5.57
2016-01-21T03:30:39.942Z,5.56
2016-01-21T03:31:39.882Z,5.46
2016-01-21T03:32:39.868Z,5.48
2016-01-21T03:33:39.887Z,5.51
2016-01-21T03:34:39.780Z,5.5
2016-01-21T03:35:39.736Z,5.47
2016-01-21T03:36:39.818Z,5.48
2016-01-21T03:37:39.742Z,5.56
2016-01-21T03:38:39.729Z,5.51
2016-01-21T03:39:39.653Z,5.51
2016-01-21T03:40:39.671Z,5.51
2016-01-21T03:41:39.596Z,5.48
2016-01-21T03:42:39.677Z,5.53
2016-01-21T03:43:39.586Z,5.5
2016-01-21T03:44:39.495Z,5.46
2016-01-21T03:45:39.545Z,5.53
2016-01-21T03:46:39.422Z,5.48
2016-01-21T03:47:39.393Z,5.5
2016-01-21T03:48:39.364Z,5.47
2016-01-21T03:49:39.336Z,5.46
2016-01-21T03:50:39.276Z,5.51
2016-01-21T03:51:39.311Z,5.53
2016-01-21T03:52:39.297Z,5.5
2016-01-21T03:53:39.175Z,5.47
2016-01-21T03:54:39.100Z,5.47
2016-01-21T03:55:39.149Z,5.44
2016-01-21T03:56:39.058Z,5.51
2016-01-21T03:57:39.030Z,5.51
2016-01-21T03:58:39.095Z,5.47
2016-01-21T03:59:39.083Z,5.5
2016-01-21T04:00:39.007Z,5.5
2016-01-21T04:01:38.963Z,5.47
2016-01-21T04:02:38.949Z,5.53
2016-01-21T04:03:38.858Z,5.54
2016-01-21T04:04:38.814Z,5.48
2016-01-21T04:05:38.771Z,5.48
2016-01-21T04:06:38.804Z,5.5
2016-01-21T04:07:38.806Z,5.53
2016-01-21T04:08:38.747Z,5.44
2016-01-21T04:09:38.687Z,5.5
2016-01-21T04:10:38.877Z,5.53
2016-01-21T04:11:38.629Z,5.5
2016-01-21T04:12:38.632Z,5.5
2016-01-21T04:13:38.557Z,5.47
2016-01-21T04:14:38.560Z,5.48
2016-01-21T04:15:38.562Z,5.43
2016-01-21T04:16:38.487Z,5.53
2016-01-21T04:17:38.474Z,5.57
2016-01-21T04:18:38.367Z,5.44
2016-01-21T04:19:39.292Z,5.48
2016-01-21T04:20:38.373Z,5.48
2016-01-21T04:21:38.345Z,5.51
2016-01-21T04:22:38.238Z,5.56
2016-01-21T04:23:38.225Z,5.47
2016-01-21T04:24:38.164Z,5.51
2016-01-21T04:25:38.152Z,5.48
2016-01-21T04:26:38.202Z,5.48
2016-01-21T04:27:38.064Z,5.48
2016-01-21T04:28:38.160Z,5.47
2016-01-21T04:29:38.038Z,5.48
2016-01-21T04:30:38.025Z,5.56
2016-01-21T04:31:38.059Z,5.48
2016-01-21T04:32:37.983Z,5.5
2016-01-21T04:33:37.892Z,5.5
2016-01-21T04:34:37.817Z,5.51
2016-01-21T04:35:37.866Z,5.51
2016-01-21T04:36:37.854Z,5.47
2016-01-21T04:37:37.793Z,5.56
2016-01-21T04:38:37.749Z,5.5
2016-01-21T04:39:37.815Z,5.5
2016-01-21T04:40:37.583Z,5.54
2016-01-21T04:41:37.758Z,5.51
2016-01-21T04:42:37.682Z,5.5
2016-01-21T04:43:37.482Z,5.46
2016-01-21T04:44:37.516Z,5.48
2016-01-21T04:45:37.535Z,5.46
2016-01-21T04:46:37.490Z,5.48
2016-01-21T04:47:37.493Z,5.46
2016-01-21T04:48:37.339Z,5.5
2016-01-21T17:38:31.760Z,4.56
2016-01-21T17:39:31.638Z,4.53
2016-01-21T17:40:31.641Z,4.58
2016-01-21T17:41:31.644Z,4.56
2016-01-21T17:42:31.631Z,4.5
2016-01-21T17:43:31.618Z,4.58
2016-01-21T17:44:31.590Z,4.73
2016-01-21T17:45:31.467Z,4.73
2016-01-21T17:46:31.439Z,4.7
2016-01-21T17:47:31.456Z,4.7
2016-01-21T17:48:31.372Z,4.67
2016-01-21T17:49:32.078Z,4.68
2016-01-21T19:46:46.962Z,16
2016-01-21T19:47:47.058Z,16.75
2016-01-21T19:48:46.935Z,17.57
2016-01-21T19:49:46.876Z,18.37
2016-01-21T19:50:46.895Z,19.02
2016-01-21T19:51:46.913Z,19.73
2016-01-21T19:52:46.868Z,20.39
2016-01-21T19:53:46.778Z,20.95
2016-01-21T19:54:47.030Z,21.54
2016-01-21T19:55:46.751Z,22.04
2016-01-21T19:56:46.645Z,22.57
2016-01-21T19:57:46.742Z,23.06
2016-01-21T19:58:46.634Z,23.39
2016-01-21T19:59:46.669Z,23.65
2016-01-21T20:00:46.765Z,23.98
2016-01-21T20:01:46.581Z,24.2
2016-01-21T20:02:46.520Z,24.48
2016-01-21T20:03:46.616Z,24.6
2016-01-21T20:04:46.604Z,24.77
2016-01-21T20:05:46.436Z,24.89
2016-01-21T20:06:46.484Z,25.01
2016-01-21T20:07:46.425Z,25.11
2016-01-21T20:08:46.427Z,25.17
2016-01-21T20:09:46.649Z,25.4
2016-01-21T20:10:46.307Z,25.41
2016-01-21T20:11:46.451Z,25.46
2016-01-21T20:12:46.266Z,25.44
2016-01-21T20:13:46.253Z,25.51
2016-01-21T20:14:46.303Z,25.53
2016-01-21T20:15:46.353Z,25.59
2016-01-21T20:16:46.213Z,25.55
2016-01-21T20:17:46.293Z,25.6
2016-01-21T20:18:46.296Z,25.65
2016-01-21T20:19:46.251Z,25.65
2016-01-21T20:20:46.160Z,25.66
2016-01-21T20:21:46.147Z,25.69
2016-01-21T20:22:46.056Z,25.69
2016-01-21T20:23:46.075Z,25.62
2016-01-21T20:24:45.984Z,25.66
2016-01-21T20:25:46.174Z,25.63
2016-01-21T20:26:46.005Z,25.68
2016-01-21T20:27:46.023Z,25.65
2016-01-21T20:28:46.041Z,25.69
2016-01-21T20:29:45.965Z,25.7
2016-01-21T20:30:45.968Z,25.72
2016-01-21T20:31:46.003Z,25.7
2016-01-21T20:32:45.865Z,25.78
2016-01-21T20:33:45.820Z,25.81
2016-01-21T20:34:45.964Z,25.7
2016-01-21T20:35:45.732Z,25.69
2016-01-21T20:36:45.797Z,25.81
2016-01-21T20:37:45.722Z,25.72
